createdAt,value
2018-09-03T00:00:42.718Z,18.61
2018-09-03T00:03:12.922Z,18.63
2018-09-03T00:05:43.082Z,18.58
2018-09-03T00:08:13.291Z,18.58
2018-09-03T00:10:43.552Z,18.56
2018-09-03T00:13:13.706Z,18.52
2018-09-03T00:15:43.861Z,18.50
2018-09-03T00:18:14.058Z,18.55
2018-09-03T00:20:44.352Z,18.57
2018-09-03T00:23:14.596Z,18.51
2018-09-03T00:25:44.798Z,18.58
2018-09-03T00:28:15.103Z,18.61
2018-09-03T00:30:45.326Z,18.56
2018-09-03T00:33:20.497Z,18.62
2018-09-03T00:37:00.938Z,18.65
2018-09-03T00:39:36.275Z,18.61
2018-09-03T00:42:12.242Z,18.63
2018-09-03T00:44:47.687Z,18.55
2018-09-03T00:47:17.850Z,18.72
2018-09-03T00:49:48.137Z,18.76
2018-09-03T00:52:18.314Z,18.81
2018-09-03T00:54:48.597Z,18.77
2018-09-03T00:57:18.813Z,18.72
2018-09-03T00:59:49.261Z,18.79
2018-09-03T01:02:20.003Z,18.81
2018-09-03T01:04:50.220Z,18.76
2018-09-03T01:07:20.503Z,18.64
2018-09-03T01:09:50.839Z,18.55
2018-09-03T01:12:20.953Z,18.55
2018-09-03T01:14:51.171Z,18.61
2018-09-03T01:17:21.914Z,18.69
2018-09-03T01:19:52.247Z,18.56
2018-09-03T01:22:22.453Z,18.57
2018-09-03T01:24:52.579Z,18.68
2018-09-03T01:27:22.801Z,18.70
2018-09-03T01:29:53.349Z,18.60
2018-09-03T01:32:23.640Z,18.57
2018-09-03T01:34:53.865Z,18.60
2018-09-03T01:37:24.038Z,18.54
2018-09-03T01:39:54.244Z,18.51
2018-09-03T01:42:24.568Z,18.55
2018-09-03T01:44:54.818Z,18.44
2018-09-03T01:47:24.970Z,18.33
2018-09-03T01:49:55.193Z,18.26
2018-09-03T01:52:25.309Z,18.24
2018-09-03T01:54:55.762Z,18.28
2018-09-03T01:57:25.935Z,18.32
2018-09-03T01:59:56.213Z,18.42
2018-09-03T02:02:27.031Z,18.45
2018-09-03T02:04:57.349Z,18.65
2018-09-03T02:07:27.606Z,18.74
2018-09-03T02:09:57.771Z,18.63
2018-09-03T02:12:28.147Z,18.64
2018-09-03T02:14:58.326Z,18.78
2018-09-03T02:17:28.627Z,18.84
2018-09-03T02:19:58.867Z,18.85
2018-09-03T02:22:29.509Z,18.81
2018-09-03T02:24:59.710Z,18.82
2018-09-03T02:27:36.528Z,18.73
2018-09-03T02:30:07.184Z,18.70
2018-09-03T02:32:37.460Z,18.64
2018-09-03T02:35:07.793Z,18.61
2018-09-03T02:37:37.885Z,18.58
2018-09-03T02:40:08.212Z,18.61
2018-09-03T02:42:38.411Z,18.66
2018-09-03T02:45:10.212Z,18.69
2018-09-03T02:47:40.534Z,18.68
2018-09-03T02:50:10.718Z,18.58
2018-09-03T02:52:40.838Z,18.50
2018-09-03T02:55:11.138Z,18.50
2018-09-03T02:57:41.320Z,18.48
2018-09-03T03:00:11.515Z,18.40
2018-09-03T03:02:41.610Z,18.40
2018-09-03T03:05:11.995Z,18.39
2018-09-03T03:07:42.867Z,18.42
2018-09-03T03:10:13.124Z,18.60
2018-09-03T03:12:43.323Z,18.40
2018-09-03T03:15:13.507Z,18.49
2018-09-03T03:17:43.690Z,18.56
2018-09-03T03:20:13.920Z,18.48
2018-09-03T03:22:44.031Z,18.46
2018-09-03T03:25:14.398Z,18.53
2018-09-03T03:27:44.794Z,18.49
2018-09-03T03:30:15.053Z,18.51
2018-09-03T03:32:45.228Z,18.55
2018-09-03T03:35:15.690Z,18.56
2018-09-03T03:37:48.205Z,18.40
2018-09-03T03:40:19.656Z,18.37
2018-09-03T03:42:49.793Z,18.35
2018-09-03T03:45:20.186Z,18.40
2018-09-03T03:47:50.495Z,18.34
2018-09-03T03:50:20.844Z,18.32
2018-09-03T03:52:51.150Z,18.31
2018-09-03T03:55:21.362Z,18.24
2018-09-03T03:57:51.557Z,18.24
2018-09-03T04:00:21.730Z,18.14
2018-09-03T04:02:51.882Z,18.15
2018-09-03T04:05:22.392Z,18.07
2018-09-03T04:07:52.555Z,18.10
2018-09-03T04:10:22.832Z,18.17
2018-09-03T04:12:58.439Z,18.20
2018-09-03T04:15:28.885Z,18.02
2018-09-03T04:17:59.097Z,17.93
2018-09-03T04:20:29.405Z,17.97
2018-09-03T04:22:59.655Z,18.07
2018-09-03T04:25:29.940Z,18.10
2018-09-03T04:28:00.197Z,18.11
2018-09-03T04:30:30.601Z,18.04
2018-09-03T04:33:01.073Z,18.02
2018-09-03T04:35:31.432Z,18.10
2018-09-03T04:38:01.678Z,18.09
2018-09-03T04:40:32.528Z,18.02
2018-09-03T04:43:02.734Z,18.07
2018-09-03T04:45:33.290Z,17.99
2018-09-03T04:48:03.614Z,17.86
2018-09-03T04:50:33.989Z,17.74
2018-09-03T04:53:04.233Z,17.72
2018-09-03T04:55:34.458Z,17.79
2018-09-03T04:58:04.885Z,17.79
2018-09-03T05:00:35.315Z,17.71
2018-09-03T05:03:05.906Z,17.72
2018-09-03T05:05:36.300Z,17.78
2018-09-03T05:08:06.537Z,17.71
2018-09-03T05:10:36.939Z,17.79
2018-09-03T05:13:07.167Z,17.78
2018-09-03T05:15:37.322Z,17.81
2018-09-03T05:18:07.703Z,17.67
2018-09-03T05:20:38.057Z,17.66
2018-09-03T05:23:08.263Z,17.75
2018-09-03T05:25:38.875Z,17.77
2018-09-03T05:28:09.116Z,17.67
2018-09-03T05:30:39.398Z,17.74
2018-09-03T05:33:09.593Z,17.69
2018-09-03T05:35:39.832Z,17.79
2018-09-03T05:38:09.962Z,17.74
2018-09-03T05:40:40.236Z,17.80
2018-09-03T05:43:10.806Z,17.77
2018-09-03T05:45:41.172Z,17.83
2018-09-03T05:48:11.322Z,17.89
2018-09-03T05:50:41.591Z,17.95
2018-09-03T05:53:11.804Z,17.92
2018-09-03T05:55:42.064Z,17.87
2018-09-03T05:58:12.342Z,17.96
2018-09-03T06:00:42.551Z,17.93
2018-09-03T06:03:13.031Z,17.83
2018-09-03T06:05:43.283Z,17.92
2018-09-03T06:08:13.506Z,17.87
2018-09-03T06:10:44.265Z,17.89
2018-09-03T06:13:14.666Z,17.72
2018-09-03T06:15:45.643Z,17.93
2018-09-03T06:18:15.910Z,17.78
2018-09-03T06:20:46.199Z,17.60
2018-09-03T06:23:16.431Z,17.61
2018-09-03T06:25:46.951Z,17.57
2018-09-03T06:28:17.202Z,17.67
2018-09-03T06:30:47.359Z,17.66
2018-09-03T06:33:17.643Z,17.69
2018-09-03T06:35:47.876Z,17.84
2018-09-03T06:38:18.818Z,17.99
2018-09-03T06:40:49.085Z,17.95
2018-09-03T06:43:19.226Z,17.95
2018-09-03T06:45:49.571Z,18.15
2018-09-03T06:48:19.737Z,18.19
2018-09-03T06:50:50.112Z,18.28
2018-09-03T06:53:20.405Z,18.46
2018-09-03T06:55:50.616Z,18.59
2018-09-03T06:58:20.860Z,18.73
2018-09-03T07:00:54.148Z,18.90
2018-09-03T07:03:25.660Z,19.09
2018-09-03T07:05:56.707Z,19.15
2018-09-03T07:08:26.932Z,19.28
2018-09-03T07:10:57.373Z,19.20
2018-09-03T07:13:28.119Z,19.22
2018-09-03T07:15:58.320Z,19.26
2018-09-03T07:18:28.493Z,19.07
2018-09-03T07:20:58.670Z,19.28
2018-09-03T07:23:28.798Z,19.43
2018-09-03T07:25:59.084Z,19.57
2018-09-03T07:28:29.347Z,19.76
2018-09-03T07:30:59.937Z,19.93
2018-09-03T07:33:30.185Z,20.11
2018-09-03T07:36:00.333Z,20.24
2018-09-03T07:38:30.878Z,20.00
2018-09-03T07:41:01.179Z,19.78
2018-09-03T07:43:31.266Z,19.75
2018-09-03T07:46:01.398Z,19.81
2018-09-03T07:48:31.747Z,19.70
2018-09-03T07:51:02.020Z,19.78
2018-09-03T07:53:32.173Z,19.84
2018-09-03T07:56:02.504Z,19.76
2018-09-03T07:58:32.658Z,19.83
2018-09-03T08:01:03.106Z,19.85
2018-09-03T08:03:33.338Z,20.23
2018-09-03T08:06:04.001Z,20.27
2018-09-03T08:08:35.788Z,20.52
2018-09-03T08:11:06.252Z,20.72
2018-09-03T08:13:39.626Z,20.67
2018-09-03T08:16:10.573Z,20.61
2018-09-03T08:18:41.545Z,20.40
2018-09-03T08:21:11.754Z,20.08
2018-09-03T08:23:41.937Z,19.92
2018-09-03T08:26:12.124Z,19.85
2018-09-03T08:28:42.508Z,20.02
2018-09-03T08:31:12.763Z,19.95
2018-09-03T08:33:42.870Z,19.66
2018-09-03T08:36:13.076Z,19.70
2018-09-03T08:38:43.302Z,19.58
2018-09-03T08:41:13.450Z,19.63
2018-09-03T08:43:44.433Z,19.80
2018-09-03T08:46:14.816Z,19.76
2018-09-03T08:48:45.071Z,19.68
2018-09-03T08:51:15.281Z,19.73
2018-09-03T08:53:45.626Z,19.89
2018-09-03T08:56:15.981Z,19.99
2018-09-03T08:58:46.351Z,19.77
2018-09-03T09:01:16.716Z,19.80
2018-09-03T09:03:46.894Z,19.64
2018-09-03T09:06:17.501Z,19.79
2018-09-03T09:08:47.808Z,19.92
2018-09-03T09:11:18.087Z,19.91
2018-09-03T09:13:48.623Z,19.99
2018-09-03T09:16:19.684Z,20.03
2018-09-03T09:18:50.019Z,20.24
2018-09-03T09:21:20.923Z,20.09
2018-09-03T09:23:51.680Z,20.22
2018-09-03T09:26:22.327Z,20.13
2018-09-03T09:28:52.667Z,20.42
2018-09-03T09:31:23.735Z,20.27
2018-09-03T09:33:53.952Z,20.35
2018-09-03T09:36:24.199Z,20.45
2018-09-03T09:41:34.871Z,21.67
2018-09-03T09:44:05.733Z,22.14
2018-09-03T09:46:35.957Z,22.34
2018-09-03T09:49:06.209Z,22.69
2018-09-03T09:51:36.608Z,22.91
2018-09-03T09:54:06.847Z,22.82
2018-09-03T09:56:37.112Z,22.79
2018-09-03T09:59:07.806Z,22.97
2018-09-03T10:01:39.377Z,23.24
2018-09-03T10:04:09.703Z,23.36
2018-09-03T10:06:39.985Z,23.16
2018-09-03T10:09:10.371Z,23.14
2018-09-03T10:11:41.552Z,23.52
2018-09-03T10:14:11.726Z,23.70
2018-09-03T10:16:41.945Z,23.75
2018-09-03T10:19:12.278Z,23.52
2018-09-03T10:21:42.519Z,23.56
2018-09-03T10:24:12.700Z,23.63
2018-09-03T10:26:43.420Z,23.73
2018-09-03T10:29:14.572Z,23.78
2018-09-03T10:31:44.865Z,24.00
2018-09-03T10:34:15.188Z,24.28
2018-09-03T10:36:45.396Z,24.39
2018-09-03T10:39:15.590Z,24.11
2018-09-03T10:41:46.169Z,24.54
2018-09-03T10:44:16.507Z,24.77
2018-09-03T10:46:48.293Z,24.95
2018-09-03T10:49:19.078Z,24.86
2018-09-03T10:51:49.277Z,24.60
2018-09-03T10:54:19.899Z,24.43
2018-09-03T10:56:50.179Z,24.59
2018-09-03T10:59:20.470Z,24.61
2018-09-03T11:01:50.663Z,24.91
2018-09-03T11:04:20.894Z,25.34
2018-09-03T11:06:51.149Z,24.86
2018-09-03T11:09:21.306Z,24.74
2018-09-03T11:11:51.574Z,24.92
2018-09-03T11:14:22.074Z,24.90
2018-09-03T11:16:52.399Z,24.84
2018-09-03T11:19:25.106Z,25.13
2018-09-03T11:21:55.517Z,25.43
2018-09-03T11:24:26.951Z,24.94
2018-09-03T11:26:57.318Z,25.01
2018-09-03T11:29:28.403Z,24.78
2018-09-03T11:31:59.070Z,25.10
2018-09-03T11:34:29.922Z,25.09
2018-09-03T11:37:00.569Z,24.94
2018-09-03T11:39:31.195Z,24.49
2018-09-03T11:42:01.758Z,24.66
2018-09-03T11:44:32.259Z,24.18
2018-09-03T11:47:02.745Z,24.70
2018-09-03T11:49:33.478Z,24.47
2018-09-03T11:52:03.905Z,23.47
2018-09-03T11:54:34.086Z,23.36
2018-09-03T11:57:04.230Z,23.63
2018-09-03T11:59:35.653Z,23.78
2018-09-03T12:02:07.507Z,24.08
2018-09-03T12:04:37.875Z,24.47
2018-09-03T12:07:08.525Z,25.09
2018-09-03T12:09:39.250Z,24.82
2018-09-03T12:12:09.457Z,24.82
2018-09-03T12:14:42.186Z,24.63
2018-09-03T12:17:12.473Z,25.05
2018-09-03T12:19:43.145Z,24.48
2018-09-03T12:22:13.516Z,24.66
2018-09-03T12:24:43.587Z,24.18
2018-09-03T12:27:13.761Z,24.17
2018-09-03T12:29:44.074Z,24.53
2018-09-03T12:32:14.374Z,24.46
2018-09-03T12:34:44.523Z,24.57
2018-09-03T12:37:14.650Z,23.84
2018-09-03T12:39:45.018Z,23.77
2018-09-03T12:42:15.199Z,23.73
2018-09-03T12:44:45.358Z,23.89
2018-09-03T12:47:15.563Z,24.22
2018-09-03T12:49:45.984Z,24.34
2018-09-03T12:52:16.370Z,24.73
2018-09-03T12:54:46.549Z,25.09
2018-09-03T12:57:16.683Z,24.55
2018-09-03T12:59:46.843Z,24.91
2018-09-03T13:02:17.339Z,25.03
2018-09-03T13:04:47.470Z,24.97
2018-09-03T13:07:17.698Z,24.47
2018-09-03T13:09:47.889Z,24.47
2018-09-03T13:12:18.233Z,24.60
2018-09-03T13:14:48.365Z,24.83
2018-09-03T13:17:20.109Z,24.98
2018-09-03T13:19:50.785Z,25.49
2018-09-03T13:22:21.021Z,25.62
2018-09-03T13:24:51.223Z,26.07
2018-09-03T13:27:24.352Z,26.18
2018-09-03T13:29:54.542Z,26.11
2018-09-03T13:32:24.813Z,26.00
2018-09-03T13:34:55.001Z,25.91
2018-09-03T13:37:25.317Z,26.11
2018-09-03T13:39:55.515Z,25.68
2018-09-03T13:42:25.797Z,25.59
2018-09-03T13:44:55.938Z,25.66
2018-09-03T13:47:27.201Z,25.63
2018-09-03T13:49:57.747Z,25.74
2018-09-03T13:52:28.573Z,26.10
2018-09-03T13:54:59.113Z,26.15
2018-09-03T13:57:29.342Z,25.90
2018-09-03T13:59:59.467Z,25.82
2018-09-03T14:02:29.693Z,25.35
2018-09-03T14:04:59.893Z,25.23
2018-09-03T14:07:30.029Z,25.15
2018-09-03T14:10:00.302Z,24.95
2018-09-03T14:12:30.492Z,25.35
2018-09-03T14:15:01.123Z,25.11
2018-09-03T14:17:31.900Z,25.21
2018-09-03T14:20:02.141Z,24.89
2018-09-03T14:22:32.333Z,25.09
2018-09-03T14:25:02.645Z,25.07
2018-09-03T14:27:33.007Z,25.20
2018-09-03T14:30:03.213Z,25.20
2018-09-03T14:32:33.901Z,24.68
2018-09-03T14:35:04.114Z,24.66
2018-09-03T14:37:34.455Z,24.14
2018-09-03T14:40:05.109Z,24.08
2018-09-03T14:42:35.842Z,24.09
2018-09-03T14:45:06.734Z,23.65
2018-09-03T14:47:37.048Z,23.46
2018-09-03T14:50:07.769Z,23.42
2018-09-03T14:52:38.097Z,23.38
2018-09-03T14:55:08.687Z,23.29
2018-09-03T14:57:38.893Z,23.10
2018-09-03T15:00:10.921Z,23.21
2018-09-03T15:02:41.348Z,23.07
2018-09-03T15:05:11.527Z,23.00
2018-09-03T15:07:42.002Z,22.80
2018-09-03T15:10:12.539Z,22.84
2018-09-03T15:12:42.920Z,22.87
2018-09-03T15:15:13.097Z,22.89
2018-09-03T15:17:43.676Z,22.85
2018-09-03T15:20:14.125Z,22.73
2018-09-03T15:22:44.587Z,22.82
2018-09-03T15:25:14.838Z,22.72
2018-09-03T15:27:45.246Z,22.80
2018-09-03T15:30:16.303Z,22.78
2018-09-03T15:32:46.689Z,22.92
2018-09-03T15:35:17.770Z,22.88
2018-09-03T15:37:48.126Z,23.07
2018-09-03T15:40:19.812Z,23.10
2018-09-03T15:42:54.551Z,23.10
2018-09-03T15:45:33.785Z,23.05
2018-09-03T15:48:05.618Z,23.03
2018-09-03T15:50:43.595Z,23.01
2018-09-03T15:53:16.300Z,22.99
2018-09-03T15:55:55.139Z,23.01
2018-09-03T15:58:27.991Z,22.94
2018-09-03T16:01:00.030Z,22.82
2018-09-03T16:03:31.191Z,22.86
2018-09-03T16:06:02.872Z,22.80
2018-09-03T16:08:34.416Z,22.73
2018-09-03T16:11:07.438Z,22.66
2018-09-03T16:13:45.673Z,22.58
2018-09-03T16:16:16.766Z,22.63
2018-09-03T16:18:48.598Z,22.54
2018-09-03T16:21:20.017Z,22.48
2018-09-03T16:23:50.465Z,22.41
2018-09-03T16:26:20.648Z,22.59
2018-09-03T16:28:50.962Z,22.45
2018-09-03T16:31:25.397Z,22.38
2018-09-03T16:33:56.022Z,22.38
2018-09-03T16:36:26.207Z,22.41
2018-09-03T16:38:56.644Z,22.41
2018-09-03T16:41:31.170Z,22.33
2018-09-03T16:44:09.308Z,22.38
2018-09-03T16:46:46.196Z,22.40
2018-09-03T16:49:16.722Z,22.34
2018-09-03T16:51:47.247Z,22.25
2018-09-03T16:54:17.525Z,22.21
2018-09-03T16:56:47.839Z,22.24
2018-09-03T16:59:18.370Z,22.31
2018-09-03T17:01:48.790Z,22.26
2018-09-03T17:04:19.142Z,22.18
2018-09-03T17:06:49.693Z,22.09
2018-09-03T17:09:19.872Z,22.06
2018-09-03T17:11:50.061Z,22.08
2018-09-03T17:14:21.126Z,22.12
2018-09-03T17:16:51.321Z,22.23
2018-09-03T17:19:21.468Z,22.17
2018-09-03T17:21:51.622Z,22.15
2018-09-03T17:24:21.762Z,22.14
2018-09-03T17:26:52.140Z,22.11
2018-09-03T17:29:22.519Z,22.09
2018-09-03T17:31:52.936Z,22.06
2018-09-03T17:34:23.386Z,22.12
2018-09-03T17:36:55.495Z,22.16
2018-09-03T17:39:25.768Z,22.14
2018-09-03T17:41:55.864Z,22.17
2018-09-03T17:44:25.987Z,22.22
2018-09-03T17:46:56.195Z,22.20
2018-09-03T17:49:27.106Z,22.13
2018-09-03T17:51:57.288Z,22.25
2018-09-03T17:54:27.438Z,22.15
2018-09-03T17:56:57.749Z,22.09
2018-09-03T17:59:28.049Z,21.95
2018-09-03T18:01:58.188Z,22.03
2018-09-03T18:04:32.017Z,22.05
2018-09-03T18:07:03.374Z,22.02
2018-09-03T18:09:34.713Z,21.99
2018-09-03T18:12:05.231Z,21.85
2018-09-03T18:14:35.432Z,21.82
2018-09-03T18:17:05.850Z,21.68
2018-09-03T18:19:36.007Z,21.63
2018-09-03T18:22:06.184Z,21.51
2018-09-03T18:24:36.289Z,21.49
2018-09-03T18:27:06.497Z,21.46
2018-09-03T18:29:36.806Z,21.39
2018-09-03T18:32:07.342Z,21.34
2018-09-03T18:34:37.498Z,21.43
2018-09-03T18:37:07.781Z,21.39
2018-09-03T18:39:38.188Z,21.33
2018-09-03T18:42:08.337Z,21.22
2018-09-03T18:44:38.575Z,21.33
2018-09-03T18:47:08.724Z,21.25
2018-09-03T18:49:39.005Z,21.17
2018-09-03T18:52:09.683Z,21.17
2018-09-03T18:54:39.845Z,21.15
2018-09-03T18:57:10.029Z,21.03
2018-09-03T18:59:40.267Z,20.93
2018-09-03T19:02:10.408Z,20.85
2018-09-03T19:04:40.733Z,20.71
2018-09-03T19:07:10.881Z,20.64
2018-09-03T19:09:41.041Z,20.55
2018-09-03T19:12:11.246Z,20.54
2018-09-03T19:14:41.423Z,20.54
2018-09-03T19:17:11.610Z,20.51
2018-09-03T19:19:41.987Z,20.47
2018-09-03T19:22:12.198Z,20.42
2018-09-03T19:24:42.519Z,20.33
2018-09-03T19:27:12.793Z,20.27
2018-09-03T19:29:43.137Z,20.25
2018-09-03T19:32:13.306Z,20.21
2018-09-03T19:34:43.538Z,20.18
2018-09-03T19:37:15.120Z,20.25
2018-09-03T19:39:45.306Z,20.18
2018-09-03T19:42:15.416Z,20.16
2018-09-03T19:44:45.535Z,20.13
2018-09-03T19:47:15.761Z,20.23
2018-09-03T19:49:45.897Z,20.20
2018-09-03T19:52:16.075Z,20.17
2018-09-03T19:54:46.298Z,20.11
2018-09-03T19:57:16.552Z,20.06
2018-09-03T19:59:46.847Z,20.01
2018-09-03T20:02:17.022Z,20.00
2018-09-03T20:04:47.542Z,20.12
2018-09-03T20:07:17.720Z,20.23
2018-09-03T20:09:49.347Z,20.44
2018-09-03T20:12:19.545Z,20.36
2018-09-03T20:14:52.412Z,20.22
2018-09-03T20:17:24.112Z,20.42
2018-09-03T20:19:54.803Z,20.37
2018-09-03T20:22:25.036Z,20.47
2018-09-03T20:24:55.626Z,20.52
2018-09-03T20:27:25.933Z,20.35
2018-09-03T20:29:56.107Z,20.40
2018-09-03T20:32:26.223Z,20.34
2018-09-03T20:34:56.404Z,20.40
2018-09-03T20:37:26.497Z,20.38
2018-09-03T20:39:56.727Z,20.35
2018-09-03T20:42:26.905Z,20.19
2018-09-03T20:44:57.047Z,20.10
2018-09-03T20:47:27.906Z,20.11
2018-09-03T20:49:58.169Z,20.00
2018-09-03T20:52:28.298Z,20.04
2018-09-03T20:54:58.425Z,20.11
2018-09-03T20:57:28.578Z,20.03
2018-09-03T20:59:58.732Z,19.97
2018-09-03T21:02:28.843Z,19.96
2018-09-03T21:04:59.022Z,19.91
2018-09-03T21:07:29.144Z,19.86
2018-09-03T21:09:59.272Z,19.88
2018-09-03T21:12:29.362Z,19.79
2018-09-03T21:14:59.550Z,19.80
2018-09-03T21:17:29.924Z,19.76
2018-09-03T21:20:00.803Z,19.84
2018-09-03T21:22:30.984Z,19.76
2018-09-03T21:25:02.052Z,19.81
2018-09-03T21:27:32.737Z,19.85
2018-09-03T21:30:04.055Z,19.82
2018-09-03T21:32:34.793Z,19.80
2018-09-03T21:35:06.826Z,19.83
2018-09-03T21:37:37.297Z,20.11
2018-09-03T21:40:08.891Z,20.07
2018-09-03T21:42:39.141Z,20.16
2018-09-03T21:45:09.374Z,20.00
2018-09-03T21:47:39.500Z,19.98
2018-09-03T21:50:09.771Z,19.89
2018-09-03T21:52:39.917Z,19.86
2018-09-03T21:55:10.213Z,19.85
2018-09-03T21:57:40.586Z,19.88
2018-09-03T22:00:11.808Z,19.82
2018-09-03T22:02:42.332Z,19.84
2018-09-03T22:05:13.017Z,19.67
2018-09-03T22:07:44.073Z,19.50
2018-09-03T22:10:15.261Z,19.42
2018-09-03T22:12:46.057Z,19.30
2018-09-03T22:15:16.414Z,19.22
2018-09-03T22:17:46.726Z,19.13
2018-09-03T22:20:17.720Z,19.08
2018-09-03T22:22:48.065Z,19.01
2018-09-03T22:25:18.323Z,18.88
2018-09-03T22:27:49.153Z,18.83
2018-09-03T22:30:19.370Z,18.66
2018-09-03T22:32:49.504Z,18.53
2018-09-03T22:35:20.036Z,18.42
2018-09-03T22:37:50.270Z,18.34
2018-09-03T22:40:20.744Z,18.22
2018-09-03T22:42:51.131Z,18.11
2018-09-03T22:45:21.653Z,18.00
2018-09-03T22:47:55.176Z,17.93
2018-09-03T22:50:25.546Z,17.87
2018-09-03T22:52:56.085Z,17.81
2018-09-03T22:55:26.411Z,17.79
2018-09-03T22:57:56.729Z,17.75
2018-09-03T23:00:26.961Z,17.79
2018-09-03T23:02:57.138Z,17.78
2018-09-03T23:05:27.454Z,17.75
2018-09-03T23:07:57.578Z,17.72
2018-09-03T23:10:27.777Z,17.71
2018-09-03T23:12:59.449Z,17.65
2018-09-03T23:15:29.834Z,17.57
2018-09-03T23:18:00.381Z,17.51
2018-09-03T23:20:31.568Z,17.39
2018-09-03T23:23:02.334Z,17.30
2018-09-03T23:25:33.207Z,17.22
2018-09-03T23:28:05.047Z,17.17
2018-09-03T23:30:35.612Z,17.16
2018-09-03T23:33:06.192Z,17.07
2018-09-03T23:35:36.558Z,16.99
2018-09-03T23:38:07.061Z,16.95
2018-09-03T23:40:37.278Z,16.90
2018-09-03T23:43:07.476Z,16.92
2018-09-03T23:45:37.617Z,16.91
2018-09-03T23:48:07.830Z,16.86
2018-09-03T23:50:38.045Z,16.83
2018-09-03T23:53:08.302Z,16.81
2018-09-03T23:55:38.542Z,16.74
2018-09-03T23:58:08.946Z,16.70
